Time;durP1;ratioP1;P1;durP2;ratioP2;P2;SDS_P1;SDS_P2;PMS_P1;PMS_P2;Temp;Humidity;BMP_temperature;BMP_pressure;BME280_temperature;BME280_humidity;BME280_pressure;Samples;Min_cycle;Max_cycle;Signal;HPM_P1;HPM_P2
2021/11/23 00:06:32;;;;;;;6.55;4.13;;;3.90;99.90;;;;;;5735641;23;20054;-76
2021/11/23 00:08:59;;;;;;;5.85;3.60;;;3.90;99.90;;;;;;4999165;28;20046;-76
2021/11/23 00:11:27;;;;;;;6.32;3.80;;;3.90;99.90;;;;;;4994387;28;20125;-75
2021/11/23 00:13:54;;;;;;;6.70;4.30;;;3.90;99.90;;;;;;4996227;28;20089;-78
2021/11/23 00:16:21;;;;;;;5.85;4.25;;;3.90;99.90;;;;;;4996690;28;20106;-78
2021/11/23 00:18:49;;;;;;;7.47;4.63;;;3.90;99.90;;;;;;4996462;28;20084;-77
2021/11/23 00:21:17;;;;;;;7.68;4.57;;;3.80;99.90;;;;;;4996035;28;20137;-75
2021/11/23 00:23:45;;;;;;;6.57;4.25;;;3.80;99.90;;;;;;4996286;28;20113;-78
2021/11/23 00:26:12;;;;;;;5.72;3.85;;;3.70;99.90;;;;;;4997357;28;20105;-78
2021/11/23 00:28:39;;;;;;;7.00;4.43;;;3.70;99.90;;;;;;4997173;28;20138;-76
2021/11/23 00:31:06;;;;;;;6.45;4.28;;;3.70;99.90;;;;;;4997292;28;20126;-77
2021/11/23 00:33:40;;;;;;;8.15;4.32;;;3.70;99.90;;;;;;4997739;28;20097;-76
2021/11/23 00:36:07;;;;;;;6.72;4.45;;;3.70;99.90;;;;;;4996907;28;20073;-76
2021/11/23 00:38:35;;;;;;;7.72;4.50;;;3.70;99.90;;;;;;4998573;28;20141;-77
2021/11/23 00:41:05;;;;;;;7.15;4.60;;;3.60;99.90;;;;;;4998608;28;20054;-78
2021/11/23 00:43:33;;;;;;;8.13;4.70;;;3.60;99.90;;;;;;4998889;28;20042;-77
2021/11/23 00:46:00;;;;;;;7.20;4.70;;;3.60;99.90;;;;;;4997909;28;20133;-76
2021/11/23 00:48:27;;;;;;;6.88;4.72;;;3.60;99.90;;;;;;4998108;28;20572;-74
2021/11/23 00:50:54;;;;;;;8.18;4.93;;;3.50;99.90;;;;;;4982353;28;20439;-75
2021/11/23 00:53:21;;;;;;;7.45;4.57;;;3.50;99.90;;;;;;4998912;28;20112;-78
2021/11/23 00:55:48;;;;;;;7.28;4.82;;;3.50;99.90;;;;;;4998368;28;20153;-76
2021/11/23 00:58:17;;;;;;;7.13;4.63;;;3.50;99.90;;;;;;4999573;28;20168;-77
2021/11/23 01:00:44;;;;;;;8.43;4.88;;;3.50;99.90;;;;;;4999321;28;20078;-76
2021/11/23 01:03:12;;;;;;;6.97;4.78;;;3.40;99.90;;;;;;4999287;28;20086;-77
2021/11/23 01:05:39;;;;;;;7.78;5.00;;;3.40;99.90;;;;;;5000472;28;20051;-76
2021/11/23 01:08:06;;;;;;;6.93;4.95;;;3.30;99.90;;;;;;4999737;28;20133;-77
2021/11/23 01:10:33;;;;;;;7.00;4.68;;;3.40;99.90;;;;;;4998322;28;20086;-76
2021/11/23 01:13:01;;;;;;;7.07;4.55;;;3.30;99.90;;;;;;5000242;28;20110;-76
2021/11/23 01:15:29;;;;;;;7.20;4.78;;;3.30;99.90;;;;;;4999745;28;20133;-77
2021/11/23 01:17:56;;;;;;;7.45;5.18;;;3.30;99.90;;;;;;4998980;28;20069;-78
2021/11/23 01:20:23;;;;;;;8.43;5.25;;;3.30;99.90;;;;;;4998242;28;20085;-77
2021/11/23 01:22:52;;;;;;;9.02;5.18;;;3.30;99.90;;;;;;4997613;28;20046;-75
2021/11/23 01:25:20;;;;;;;9.27;4.72;;;3.30;99.90;;;;;;4981888;28;20077;-74
2021/11/23 01:27:49;;;;;;;8.02;4.60;;;3.30;99.90;;;;;;4999171;28;20146;-76
2021/11/23 01:30:18;;;;;;;8.07;4.95;;;3.30;99.90;;;;;;4999068;28;20575;-78
2021/11/23 01:32:46;;;;;;;6.78;4.68;;;3.20;99.90;;;;;;4999468;28;20082;-74
2021/11/23 01:35:14;;;;;;;7.22;4.95;;;3.20;99.90;;;;;;4999446;28;20125;-76
2021/11/23 01:37:44;;;;;;;7.00;4.80;;;3.20;99.90;;;;;;4998173;28;20051;-79
2021/11/23 01:40:17;;;;;;;7.00;5.05;;;3.10;99.90;;;;;;4999544;28;20050;-76
2021/11/23 01:42:45;;;;;;;6.80;4.50;;;3.10;99.90;;;;;;5000122;28;20070;-77
2021/11/23 01:45:13;;;;;;;7.97;4.93;;;3.10;99.90;;;;;;4999734;28;20051;-74
2021/11/23 01:47:43;;;;;;;8.00;4.93;;;3.00;99.90;;;;;;5000985;28;20077;-75
2021/11/23 01:50:14;;;;;;;7.78;5.18;;;3.00;99.90;;;;;;5001265;28;20054;-76
2021/11/23 01:52:43;;;;;;;7.38;4.32;;;3.00;99.90;;;;;;5002472;28;20081;-76
2021/11/23 01:55:10;;;;;;;6.68;4.38;;;3.00;99.90;;;;;;5000268;28;20054;-74
2021/11/23 01:57:38;;;;;;;8.00;4.78;;;3.00;99.90;;;;;;5000832;28;20074;-77
2021/11/23 02:00:08;;;;;;;6.57;4.32;;;3.00;99.90;;;;;;5001328;28;20105;-75
2021/11/23 02:02:35;;;;;;;7.25;4.70;;;2.90;99.90;;;;;;5000365;28;20183;-76
2021/11/23 02:05:02;;;;;;;8.02;4.97;;;2.90;99.90;;;;;;5001034;28;20078;-77
2021/11/23 02:07:31;;;;;;;7.30;4.80;;;2.90;99.90;;;;;;4998900;28;20105;-75
2021/11/23 02:09:58;;;;;;;7.55;4.78;;;2.80;99.90;;;;;;4999496;28;20058;-77
2021/11/23 02:12:27;;;;;;;8.63;4.80;;;2.80;99.90;;;;;;4999340;28;20046;-76
2021/11/23 02:14:54;;;;;;;6.57;4.60;;;2.70;99.90;;;;;;4983067;28;20126;-76
2021/11/23 02:17:21;;;;;;;8.02;5.00;;;2.70;99.90;;;;;;4998172;28;20459;-75
2021/11/23 02:19:52;;;;;;;7.38;4.82;;;2.70;99.90;;;;;;4999917;28;20138;-75
2021/11/23 02:22:19;;;;;;;6.78;4.68;;;2.70;99.90;;;;;;4999049;28;20487;-75
2021/11/23 02:24:47;;;;;;;7.88;4.78;;;2.70;99.90;;;;;;4998819;28;20113;-77
2021/11/23 02:27:14;;;;;;;7.43;4.85;;;2.60;99.90;;;;;;5003129;28;20077;-76
2021/11/23 02:29:42;;;;;;;7.10;4.78;;;2.60;99.90;;;;;;5003084;28;20538;-77
2021/11/23 02:32:10;;;;;;;8.68;5.00;;;2.60;99.90;;;;;;5003215;28;20475;-78
2021/11/23 02:34:37;;;;;;;7.50;4.82;;;2.60;99.90;;;;;;5002280;28;20058;-75
2021/11/23 02:37:06;;;;;;;8.70;5.53;;;2.60;99.90;;;;;;5002991;28;20081;-76
2021/11/23 02:39:33;;;;;;;8.88;5.63;;;2.60;99.90;;;;;;5003529;28;20150;-78
2021/11/23 02:42:01;;;;;;;8.23;5.35;;;2.50;99.90;;;;;;5004579;28;20536;-76
2021/11/23 02:44:28;;;;;;;8.55;5.75;;;2.50;99.90;;;;;;5003838;28;20138;-76
2021/11/23 02:46:55;;;;;;;8.07;5.55;;;2.50;99.90;;;;;;5004018;28;20130;-75
2021/11/23 02:49:22;;;;;;;8.88;5.22;;;2.40;99.90;;;;;;5002682;28;20038;-76
2021/11/23 02:51:49;;;;;;;8.57;5.68;;;2.40;99.90;;;;;;5002650;28;20053;-78
2021/11/23 02:54:18;;;;;;;8.30;5.90;;;2.40;99.90;;;;;;5002830;28;20050;-76
2021/11/23 02:56:45;;;;;;;8.98;6.00;;;2.30;99.90;;;;;;5004375;28;20081;-77
2021/11/23 02:59:12;;;;;;;8.50;5.53;;;2.30;99.90;;;;;;5005059;28;20110;-78
2021/11/23 03:01:40;;;;;;;8.13;5.50;;;2.30;99.90;;;;;;5003894;28;20129;-76
2021/11/23 03:04:07;;;;;;;9.13;6.50;;;2.30;99.90;;;;;;5003656;28;20081;-75
2021/11/23 03:06:34;;;;;;;8.05;5.43;;;2.30;99.90;;;;;;5002419;28;20130;-77
2021/11/23 03:09:01;;;;;;;9.15;5.72;;;2.40;99.90;;;;;;4970760;28;20078;-75
2021/11/23 03:11:30;;;;;;;10.32;6.20;;;2.30;99.90;;;;;;5000925;28;20125;-75
2021/11/23 03:13:57;;;;;;;9.98;6.35;;;2.30;99.90;;;;;;5002476;28;20050;-76
2021/11/23 03:16:24;;;;;;;9.38;6.10;;;2.30;99.90;;;;;;5002798;28;20129;-77
2021/11/23 03:18:51;;;;;;;9.77;6.32;;;2.30;99.90;;;;;;5003543;28;20062;-76
2021/11/23 03:21:18;;;;;;;9.88;6.07;;;2.30;99.90;;;;;;5005301;28;20073;-76
2021/11/23 03:23:45;;;;;;;9.35;6.47;;;2.30;99.90;;;;;;5003911;28;20137;-75
2021/11/23 03:26:12;;;;;;;9.23;6.28;;;2.30;99.90;;;;;;5004207;28;20081;-76
2021/11/23 03:28:40;;;;;;;9.05;6.15;;;2.20;99.90;;;;;;5003257;28;20078;-77
2021/11/23 03:31:07;;;;;;;9.18;6.30;;;2.30;99.90;;;;;;5003857;28;20085;-78
2021/11/23 03:33:35;;;;;;;9.63;6.10;;;2.20;99.90;;;;;;5002340;28;20047;-77
2021/11/23 03:36:02;;;;;;;8.90;6.22;;;2.20;99.90;;;;;;5001365;28;20399;-77
2021/11/23 03:38:29;;;;;;;8.68;6.07;;;2.20;99.90;;;;;;5001152;28;20480;-74
2021/11/23 03:41:00;;;;;;;9.43;6.30;;;2.20;99.90;;;;;;5003073;28;20070;-75
2021/11/23 03:43:35;;;;;;;11.63;6.53;;;2.20;99.90;;;;;;5002459;28;20408;-75
2021/11/23 03:46:03;;;;;;;8.40;6.25;;;2.20;99.90;;;;;;5003593;28;20049;-77
2021/11/23 03:48:31;;;;;;;9.90;6.55;;;2.20;99.90;;;;;;5001832;28;20113;-77
2021/11/23 03:50:59;;;;;;;8.45;6.20;;;2.20;99.90;;;;;;5001267;28;20082;-77
2021/11/23 03:53:26;;;;;;;10.02;6.55;;;2.20;99.90;;;;;;5002897;28;20073;-77
2021/11/23 03:55:53;;;;;;;11.02;7.07;;;2.20;99.90;;;;;;5002627;28;20157;-77
2021/11/23 03:58:22;;;;;;;9.50;6.70;;;2.10;99.90;;;;;;5001195;28;20086;-76
2021/11/23 04:00:49;;;;;;;10.88;7.15;;;2.10;99.90;;;;;;4999916;28;20121;-77
2021/11/23 04:03:19;;;;;;;8.75;6.13;;;2.10;99.90;;;;;;4999165;28;20042;-76
2021/11/23 04:05:46;;;;;;;11.05;6.95;;;2.10;99.90;;;;;;4996145;28;20142;-75
2021/11/23 04:08:16;;;;;;;10.32;6.60;;;2.10;99.90;;;;;;4984812;28;20145;-78
2021/11/23 04:10:44;;;;;;;11.30;7.60;;;2.10;99.90;;;;;;4994360;28;20553;-76
2021/11/23 04:13:12;;;;;;;10.23;6.72;;;2.00;99.90;;;;;;4995626;28;20121;-74
2021/11/23 04:15:39;;;;;;;8.93;6.47;;;2.00;99.90;;;;;;4997119;28;20134;-76
2021/11/23 04:18:06;;;;;;;10.77;6.65;;;2.00;99.90;;;;;;4997135;28;20110;-75
2021/11/23 04:20:35;;;;;;;9.98;6.60;;;2.00;99.90;;;;;;4996272;28;20113;-76
2021/11/23 04:23:02;;;;;;;10.48;7.10;;;2.00;99.90;;;;;;4996554;28;20084;-76
2021/11/23 04:25:29;;;;;;;11.05;6.88;;;2.10;99.90;;;;;;4997042;28;20050;-76
2021/11/23 04:27:57;;;;;;;9.77;6.68;;;2.00;99.90;;;;;;4996572;28;20092;-74
2021/11/23 04:30:26;;;;;;;12.55;7.40;;;2.00;99.90;;;;;;4997175;28;20080;-75
2021/11/23 04:32:53;;;;;;;10.65;6.85;;;2.00;99.90;;;;;;4996239;28;20074;-75
2021/11/23 04:35:21;;;;;;;9.15;6.57;;;2.00;99.90;;;;;;4995238;28;20078;-76
2021/11/23 04:37:49;;;;;;;10.27;6.88;;;2.00;99.90;;;;;;4995234;28;20133;-74
2021/11/23 04:40:19;;;;;;;10.15;7.10;;;2.00;99.90;;;;;;4995276;28;20091;-74
2021/11/23 04:42:47;;;;;;;11.93;7.10;;;1.90;99.90;;;;;;4977963;28;20054;-77
2021/11/23 04:45:16;;;;;;;10.98;7.50;;;2.00;99.90;;;;;;4995626;28;20074;-76
2021/11/23 04:47:44;;;;;;;10.63;6.95;;;1.90;99.90;;;;;;4996113;28;20078;-76
2021/11/23 04:50:13;;;;;;;11.40;7.07;;;1.90;99.90;;;;;;4995972;28;20053;-76
2021/11/23 04:52:41;;;;;;;11.77;7.18;;;1.80;99.90;;;;;;4994588;28;20150;-74
2021/11/23 04:55:10;;;;;;;11.93;7.28;;;1.80;99.90;;;;;;4977795;28;20412;-75
2021/11/23 04:57:39;;;;;;;10.48;7.15;;;1.80;99.90;;;;;;4993509;28;20476;-74
2021/11/23 05:00:11;;;;;;;9.52;7.07;;;1.70;99.90;;;;;;4995701;28;20121;-77
2021/11/23 05:02:38;;;;;;;10.80;7.20;;;1.70;99.90;;;;;;5001820;28;20133;-78
2021/11/23 05:05:07;;;;;;;9.48;6.70;;;1.70;99.90;;;;;;5003575;28;20042;-79
2021/11/23 05:07:35;;;;;;;11.68;7.65;;;1.60;99.90;;;;;;5002251;28;20091;-80
2021/11/23 05:10:02;;;;;;;10.73;7.25;;;1.60;99.90;;;;;;5001938;28;20046;-80
2021/11/23 05:12:30;;;;;;;11.88;7.03;;;1.60;99.90;;;;;;5003431;28;20070;-79
2021/11/23 05:14:57;;;;;;;11.30;7.65;;;1.60;99.90;;;;;;5002716;28;20145;-79
2021/11/23 05:17:24;;;;;;;11.88;7.85;;;1.60;99.90;;;;;;5000789;28;20129;-75
2021/11/23 05:19:52;;;;;;;12.07;7.50;;;1.60;99.90;;;;;;5000956;28;20543;-76
2021/11/23 05:22:19;;;;;;;10.02;7.20;;;1.60;99.90;;;;;;4999985;28;20047;-75
2021/11/23 05:24:51;;;;;;;11.85;7.93;;;1.70;99.90;;;;;;5000928;28;20149;-80
2021/11/23 05:27:18;;;;;;;11.68;7.22;;;1.70;99.90;;;;;;5001218;28;20117;-75
2021/11/23 05:29:47;;;;;;;10.80;6.88;;;1.70;99.90;;;;;;4997841;28;20050;-75
2021/11/23 05:32:17;;;;;;;9.95;6.95;;;1.60;99.90;;;;;;4999390;28;20077;-77
2021/11/23 05:34:44;;;;;;;11.80;7.68;;;1.60;99.90;;;;;;4999086;28;20085;-75
2021/11/23 05:37:12;;;;;;;11.60;7.28;;;1.60;99.90;;;;;;4999629;28;20111;-74
2021/11/23 05:39:39;;;;;;;11.02;7.32;;;1.60;99.90;;;;;;5000175;28;20141;-77
2021/11/23 05:42:12;;;;;;;12.07;7.63;;;1.60;99.90;;;;;;4999956;28;20070;-76
2021/11/23 05:44:39;;;;;;;11.23;7.50;;;1.60;99.90;;;;;;5000280;28;20565;-74
2021/11/23 05:47:07;;;;;;;12.27;7.55;;;1.60;99.90;;;;;;4997878;28;20074;-76
2021/11/23 05:49:35;;;;;;;12.27;7.65;;;1.60;99.90;;;;;;4998392;28;20111;-74
2021/11/23 05:52:02;;;;;;;11.00;7.57;;;1.50;99.90;;;;;;4998836;28;20050;-77
2021/11/23 05:54:32;;;;;;;11.45;7.45;;;1.50;99.90;;;;;;4996850;28;20088;-77
2021/11/23 05:56:59;;;;;;;9.65;6.78;;;1.50;99.90;;;;;;4998707;28;20145;-76
2021/11/23 05:59:26;;;;;;;11.45;7.80;;;1.50;99.90;;;;;;4999038;28;20049;-75
2021/11/23 06:01:54;;;;;;;12.40;8.18;;;1.50;99.90;;;;;;5001149;28;20203;-76
2021/11/23 06:04:22;;;;;;;11.55;7.93;;;1.40;99.90;;;;;;5001874;28;20137;-74
2021/11/23 06:06:50;;;;;;;10.55;7.30;;;1.40;99.90;;;;;;5000659;28;20118;-77
2021/11/23 06:09:17;;;;;;;11.50;7.60;;;1.40;99.90;;;;;;5001622;28;20117;-76
2021/11/23 06:11:44;;;;;;;10.52;7.63;;;1.40;99.90;;;;;;5002268;28;20069;-76
2021/11/23 06:14:13;;;;;;;10.73;7.75;;;1.40;99.90;;;;;;5002386;28;20458;-74
2021/11/23 06:16:44;;;;;;;11.48;7.22;;;1.40;99.90;;;;;;5000501;28;20058;-75
2021/11/23 06:19:11;;;;;;;14.80;8.07;;;1.40;99.90;;;;;;5001139;28;20054;-75
2021/11/23 06:21:41;;;;;;;10.73;7.30;;;1.40;99.90;;;;;;4999289;28;20081;-74
2021/11/23 06:24:09;;;;;;;12.27;7.50;;;1.40;99.90;;;;;;5000853;28;20554;-77
2021/11/23 06:26:37;;;;;;;11.88;7.80;;;1.40;99.90;;;;;;5000623;28;20056;-76
2021/11/23 06:29:05;;;;;;;11.38;7.65;;;1.30;99.90;;;;;;4998802;28;20096;-75
2021/11/23 06:31:32;;;;;;;11.13;7.40;;;1.30;99.90;;;;;;5000713;28;20081;-74
2021/11/23 06:34:00;;;;;;;12.20;7.85;;;1.30;99.90;;;;;;5001828;28;20074;-77
2021/11/23 06:36:28;;;;;;;12.00;7.80;;;1.30;99.90;;;;;;5001072;28;20447;-76
2021/11/23 06:38:56;;;;;;;12.32;7.50;;;1.30;99.90;;;;;;5000803;28;20476;-76
2021/11/23 06:41:23;;;;;;;11.45;7.50;;;1.30;99.90;;;;;;5001775;28;20133;-76
2021/11/23 06:43:50;;;;;;;12.18;7.63;;;1.30;99.90;;;;;;5001493;28;20046;-75
2021/11/23 06:46:17;;;;;;;11.75;7.63;;;1.30;99.90;;;;;;5001172;28;20134;-75
2021/11/23 06:48:45;;;;;;;14.35;8.30;;;1.30;99.90;;;;;;5001570;28;20133;-77
2021/11/23 06:51:12;;;;;;;12.43;8.55;;;1.30;99.90;;;;;;4999378;28;20074;-76
2021/11/23 06:53:47;;;;;;;10.70;7.93;;;1.30;99.90;;;;;;5000096;28;20078;-76
2021/11/23 06:56:15;;;;;;;;;;;1.30;99.90;;;;;;5001223;28;20050;-76
2021/11/23 06:58:42;;;;;;;13.48;8.30;;;1.30;99.90;;;;;;5001788;28;19921;-76
2021/11/23 07:01:09;;;;;;;11.25;7.85;;;1.30;99.90;;;;;;4998915;28;20480;-75
2021/11/23 07:03:36;;;;;;;11.30;7.90;;;1.30;99.90;;;;;;4997973;28;20162;-76
2021/11/23 07:06:04;;;;;;;11.45;7.97;;;1.30;99.90;;;;;;4997324;28;20153;-76
2021/11/23 07:08:32;;;;;;;10.63;7.43;;;1.30;99.90;;;;;;4997769;28;20110;-75
2021/11/23 07:10:59;;;;;;;12.38;8.13;;;1.30;99.90;;;;;;5000267;28;20054;-76
2021/11/23 07:13:30;;;;;;;11.57;8.05;;;1.30;99.90;;;;;;5001526;28;20058;-76
2021/11/23 07:15:57;;;;;;;12.35;8.10;;;1.30;99.90;;;;;;4997270;28;20056;-76
2021/11/23 07:18:24;;;;;;;12.52;7.65;;;1.30;99.90;;;;;;5000837;28;20517;-77
2021/11/23 07:20:59;;;;;;;13.23;8.90;;;1.30;99.90;;;;;;4999034;28;20129;-75
2021/11/23 07:23:26;;;;;;;12.95;8.00;;;1.30;99.90;;;;;;5001035;28;20542;-76
2021/11/23 07:25:54;;;;;;;11.70;8.25;;;1.30;99.90;;;;;;5001042;28;20484;-76
2021/11/23 07:28:21;;;;;;;13.32;8.90;;;1.30;99.90;;;;;;5000466;28;20109;-74
2021/11/23 07:30:49;;;;;;;12.57;8.43;;;1.30;99.90;;;;;;4999638;28;20104;-76
2021/11/23 07:33:19;;;;;;;11.93;8.48;;;1.40;99.90;;;;;;4999775;28;20050;-76
2021/11/23 07:35:46;;;;;;;11.98;8.00;;;1.40;99.90;;;;;;4998789;28;20066;-76
2021/11/23 07:38:13;;;;;;;14.23;8.73;;;1.50;99.90;;;;;;4999688;28;20085;-77
2021/11/23 07:40:41;;;;;;;14.05;8.63;;;1.50;99.90;;;;;;4999778;28;20520;-77
2021/11/23 07:43:08;;;;;;;12.13;7.72;;;1.50;99.90;;;;;;4999504;28;20051;-76
2021/11/23 07:45:35;;;;;;;11.93;8.07;;;1.50;99.90;;;;;;4999761;28;20097;-77
2021/11/23 07:48:05;;;;;;;14.18;8.50;;;1.50;99.90;;;;;;5001817;28;20451;-77
2021/11/23 07:50:33;;;;;;;13.32;9.05;;;1.50;99.90;;;;;;5001551;28;20141;-77
2021/11/23 07:53:00;;;;;;;15.95;9.00;;;1.60;99.90;;;;;;5000479;28;20085;-76
2021/11/23 07:55:27;;;;;;;15.82;9.52;;;1.60;99.90;;;;;;5000935;28;20073;-76
2021/11/23 07:57:55;;;;;;;13.95;8.90;;;1.60;99.90;;;;;;5000810;28;20128;-76
2021/11/23 08:00:23;;;;;;;13.93;8.98;;;1.60;99.90;;;;;;5000616;28;20104;-76
2021/11/23 08:02:50;;;;;;;14.15;9.23;;;1.70;99.90;;;;;;5000812;28;20049;-75
2021/11/23 08:05:19;;;;;;;14.63;8.90;;;1.70;99.90;;;;;;4999207;28;20146;-73
2021/11/23 08:07:46;;;;;;;15.23;9.65;;;1.70;99.90;;;;;;4998655;28;20085;-76
2021/11/23 08:10:15;;;;;;;15.48;8.90;;;1.70;99.90;;;;;;5000017;28;20102;-77
2021/11/23 08:12:45;;;;;;;14.48;8.75;;;1.70;99.90;;;;;;5000897;28;20129;-78
2021/11/23 08:15:12;;;;;;;14.50;9.38;;;1.70;99.90;;;;;;5000141;28;20046;-75
2021/11/23 08:17:40;;;;;;;15.57;9.55;;;1.70;99.90;;;;;;4999936;28;20133;-75
2021/11/23 08:20:11;;;;;;;14.85;9.18;;;1.80;99.90;;;;;;4997791;28;20042;-74
2021/11/23 08:22:40;;;;;;;14.35;8.98;;;1.80;99.90;;;;;;4999379;28;20124;-75
2021/11/23 08:25:10;;;;;;;14.02;9.27;;;1.80;99.90;;;;;;4999019;28;20137;-77
2021/11/23 08:27:38;;;;;;;16.30;9.25;;;1.90;99.90;;;;;;4999559;28;20142;-77
2021/11/23 08:30:08;;;;;;;14.30;9.15;;;1.90;99.90;;;;;;5000885;28;20471;-76
2021/11/23 08:32:37;;;;;;;14.20;9.18;;;1.90;99.90;;;;;;5001935;28;20057;-77
2021/11/23 08:35:07;;;;;;;15.73;9.18;;;1.90;99.90;;;;;;5000543;28;20419;-75
2021/11/23 08:37:36;;;;;;;12.38;8.73;;;1.90;99.90;;;;;;5001287;28;20082;-77
2021/11/23 08:40:06;;;;;;;13.40;9.50;;;1.90;99.90;;;;;;4999592;28;20050;-76
2021/11/23 08:42:34;;;;;;;12.57;8.60;;;1.90;99.90;;;;;;5001186;28;20077;-75
2021/11/23 08:45:06;;;;;;;13.70;9.20;;;2.00;99.90;;;;;;5002789;28;20077;-75
2021/11/23 08:47:34;;;;;;;13.27;8.75;;;2.00;99.90;;;;;;5000759;28;20050;-78
2021/11/23 08:50:09;;;;;;;15.32;9.15;;;2.00;99.90;;;;;;4998646;28;20481;-78
2021/11/23 08:52:36;;;;;;;15.43;9.20;;;2.10;99.90;;;;;;4999438;28;20070;-75
2021/11/23 08:55:06;;;;;;;15.13;9.63;;;2.10;99.90;;;;;;4998059;28;20108;-77
2021/11/23 08:57:33;;;;;;;16.30;8.95;;;2.20;99.90;;;;;;4997427;28;20137;-76
2021/11/23 09:00:13;;;;;;;15.93;9.05;;;2.20;99.90;;;;;;4997745;28;20084;-75
2021/11/23 09:02:41;;;;;;;13.82;9.25;;;2.20;99.90;;;;;;4997269;28;20050;-75
2021/11/23 09:05:11;;;;;;;14.20;9.57;;;2.30;99.90;;;;;;4994340;28;20093;-76
2021/11/23 09:07:40;;;;;;;13.32;8.70;;;2.30;99.90;;;;;;4993928;28;20046;-76
2021/11/23 09:10:17;;;;;;;14.82;9.20;;;2.30;99.90;;;;;;4993574;28;20139;-75
2021/11/23 09:12:44;;;;;;;13.57;8.98;;;2.30;99.90;;;;;;4993498;28;20102;-78
2021/11/23 09:15:11;;;;;;;13.25;8.73;;;2.30;99.90;;;;;;4994916;28;20137;-77
2021/11/23 09:17:39;;;;;;;14.50;9.43;;;2.30;99.90;;;;;;4995256;28;20089;-76
2021/11/23 09:20:11;;;;;;;13.15;8.73;;;2.30;99.90;;;;;;4996590;28;20077;-76
2021/11/23 09:22:40;;;;;;;15.13;9.65;;;2.30;99.90;;;;;;4998088;28;20082;-77
2021/11/23 09:25:11;;;;;;;15.95;9.68;;;2.40;99.90;;;;;;4998113;28;20056;-75
2021/11/23 09:27:38;;;;;;;15.60;9.00;;;2.40;99.90;;;;;;4996402;28;20145;-77
2021/11/23 09:30:10;;;;;;;13.57;9.27;;;2.50;99.90;;;;;;4996061;28;20129;-75
2021/11/23 09:32:37;;;;;;;14.13;9.13;;;2.50;99.90;;;;;;4994350;28;20129;-74
2021/11/23 09:35:09;;;;;;;14.18;9.73;;;2.50;99.90;;;;;;4994240;28;20137;-75
2021/11/23 09:37:36;;;;;;;13.80;8.90;;;2.60;99.90;;;;;;4999415;28;20132;-76
2021/11/23 09:40:04;;;;;;;17.13;9.55;;;2.60;99.90;;;;;;4998765;28;20134;-76
2021/11/23 09:42:33;;;;;;;16.70;9.68;;;2.60;99.90;;;;;;4999254;28;20185;-76
2021/11/23 09:45:03;;;;;;;13.68;8.98;;;2.70;99.90;;;;;;4999582;28;20042;-77
2021/11/23 09:47:30;;;;;;;14.60;8.75;;;2.70;99.90;;;;;;5000500;28;20077;-77
2021/11/23 09:50:00;;;;;;;15.07;9.70;;;2.70;99.90;;;;;;4998993;28;20054;-77
2021/11/23 09:52:27;;;;;;;14.27;9.48;;;2.80;99.90;;;;;;5000586;28;20073;-79
2021/11/23 09:54:54;;;;;;;13.70;9.30;;;2.80;99.90;;;;;;5000467;28;20046;-78
2021/11/23 09:57:22;;;;;;;16.63;9.30;;;2.80;99.90;;;;;;5000103;28;20086;-77
2021/11/23 09:59:52;;;;;;;14.52;9.73;;;2.80;99.90;;;;;;4999177;28;20121;-77
2021/11/23 10:02:26;;;;;;;15.80;9.73;;;2.90;99.90;;;;;;5001944;28;20129;-78
2021/11/23 10:05:03;;;;;;;13.70;8.52;;;2.90;99.90;;;;;;5001383;28;20130;-77
2021/11/23 10:07:41;;;;;;;14.40;8.70;;;2.90;99.90;;;;;;4995739;28;20062;-76
2021/11/23 10:10:16;;;;;;;13.63;9.48;;;3.00;99.90;;;;;;5000032;28;20133;-77
2021/11/23 10:12:53;;;;;;;12.90;8.90;;;3.00;99.90;;;;;;4999222;28;20115;-79
2021/11/23 10:15:25;;;;;;;12.38;8.48;;;3.00;99.90;;;;;;4999608;28;20141;-76
2021/11/23 10:17:57;;;;;;;12.07;8.23;;;3.10;99.90;;;;;;4996768;28;20050;-78
2021/11/23 10:20:33;;;;;;;12.80;8.38;;;3.10;99.90;;;;;;4993351;28;20048;-76
2021/11/23 10:23:19;;;;;;;12.90;7.90;;;3.10;99.90;;;;;;4995076;28;20057;-78
2021/11/23 10:25:50;;;;;;;12.43;7.90;;;3.20;99.90;;;;;;4994058;28;20485;-76
2021/11/23 10:28:18;;;;;;;11.32;8.07;;;3.20;99.90;;;;;;4993139;28;20510;-76
2021/11/23 10:30:48;;;;;;;11.77;7.72;;;3.30;99.90;;;;;;4993611;28;20101;-78
2021/11/23 10:33:17;;;;;;;11.57;7.72;;;3.40;99.90;;;;;;4994337;28;20050;-77
2021/11/23 10:35:47;;;;;;;10.57;7.32;;;3.40;99.90;;;;;;4993992;28;20070;-77
2021/11/23 10:38:15;;;;;;;10.70;7.90;;;3.50;99.90;;;;;;4992348;28;20053;-78
2021/11/23 10:40:45;;;;;;;11.07;7.28;;;3.60;99.90;;;;;;4992866;28;20050;-77
2021/11/23 10:43:19;;;;;;;10.55;7.28;;;3.60;99.90;;;;;;4991529;28;20136;-78
2021/11/23 10:45:52;;;;;;;12.70;8.07;;;3.70;99.90;;;;;;4993141;28;20514;-76
2021/11/23 10:48:24;;;;;;;12.48;7.88;;;3.70;99.90;;;;;;4992259;28;20085;-78
2021/11/23 10:51:25;;;;;;;30.88;14.27;;;3.80;99.90;;;;;;4976260;28;20408;-75
2021/11/23 10:54:11;;;;;;;18.42;9.38;;;3.90;99.90;;;;;;4987963;28;20081;-76
2021/11/23 10:56:56;;;;;;;11.23;7.30;;;3.90;99.90;;;;;;4988384;28;20056;-77
2021/11/23 10:59:23;;;;;;;9.90;6.53;;;4.00;99.90;;;;;;4973019;28;20050;-78
2021/11/23 11:01:52;;;;;;;10.18;6.85;;;4.10;99.90;;;;;;4986649;28;20133;-77
2021/11/23 11:04:21;;;;;;;9.77;6.38;;;4.10;99.60;;;;;;4991920;28;20141;-79
2021/11/23 11:06:49;;;;;;;10.15;6.50;;;4.10;99.70;;;;;;4997954;28;20484;-75
2021/11/23 11:09:17;;;;;;;9.45;6.47;;;4.20;99.90;;;;;;5009255;28;20072;-76
2021/11/23 11:11:44;;;;;;;9.40;6.32;;;4.20;99.80;;;;;;5010282;28;20125;-79
2021/11/23 11:14:14;;;;;;;8.88;5.60;;;4.30;99.70;;;;;;5011261;28;20137;-77
2021/11/23 11:16:41;;;;;;;9.25;6.05;;;4.40;99.80;;;;;;5010600;28;20241;-77
2021/11/23 11:19:13;;;;;;;9.05;6.03;;;4.40;99.70;;;;;;5012344;28;20133;-75
2021/11/23 11:21:42;;;;;;;9.85;5.90;;;4.50;99.70;;;;;;5010180;28;20055;-77
2021/11/23 11:24:29;;;;;;;10.00;6.30;;;4.60;99.50;;;;;;4998188;28;20196;-79
2021/11/23 11:27:11;;;;;;;8.93;5.82;;;4.70;99.30;;;;;;5008628;28;20115;-75
2021/11/23 11:29:38;;;;;;;9.98;5.80;;;4.80;99.10;;;;;;4991234;28;20101;-77
2021/11/23 11:32:06;;;;;;;7.25;4.82;;;4.90;99.00;;;;;;4991088;28;20046;-79
2021/11/23 11:34:37;;;;;;;8.88;5.47;;;5.00;98.80;;;;;;5003985;28;20064;-77
2021/11/23 11:37:17;;;;;;;9.07;6.00;;;5.00;98.60;;;;;;4991655;28;20057;-77
2021/11/23 11:40:03;;;;;;;8.00;5.65;;;5.10;98.30;;;;;;4991062;28;20380;-79
2021/11/23 11:42:51;;;;;;;8.77;5.50;;;5.20;98.30;;;;;;5005376;28;20420;-79
2021/11/23 11:45:21;;;;;;;8.65;5.85;;;5.30;98.20;;;;;;5010685;28;20100;-78
2021/11/23 11:47:51;;;;;;;8.35;5.63;;;5.40;97.90;;;;;;5009144;28;20054;-77
2021/11/23 11:50:26;;;;;;;8.00;5.47;;;5.50;97.80;;;;;;4997406;28;20042;-77
2021/11/23 11:53:15;;;;;;;8.18;5.43;;;5.60;97.70;;;;;;4996638;28;20558;-79
2021/11/23 11:55:53;;;;;;;9.68;6.13;;;5.70;97.50;;;;;;4975527;28;20054;-77
2021/11/23 11:59:02;;;;;;;8.93;5.50;;;5.80;97.30;;;;;;5000236;28;20051;-75
2021/11/23 12:01:32;;;;;;;8.55;5.85;;;5.90;97.30;;;;;;4991135;28;20137;-78
2021/11/23 12:04:13;;;;;;;8.38;5.90;;;6.00;97.10;;;;;;4990519;28;20085;-78
2021/11/23 12:07:09;;;;;;;9.70;6.15;;;6.10;97.00;;;;;;4991858;28;20069;-78
2021/11/23 12:09:40;;;;;;;8.93;6.30;;;6.30;96.60;;;;;;4955272;28;20530;-80
2021/11/23 12:12:50;;;;;;;10.00;6.60;;;6.40;96.60;;;;;;4973699;28;20108;-78
2021/11/23 12:15:30;;;;;;;9.68;6.03;;;6.60;96.00;;;;;;4990966;28;20517;-77
2021/11/23 12:18:30;;;;;;;9.20;6.05;;;6.80;95.80;;;;;;4990688;28;20157;-78
2021/11/23 12:21:05;;;;;;;9.30;6.20;;;7.00;95.70;;;;;;4990056;28;20125;-77
2021/11/23 12:23:38;;;;;;;;;;;7.20;95.40;;;;;;4990546;28;20166;-79
2021/11/23 12:26:12;;;;;;;9.45;5.95;;;7.40;94.90;;;;;;4990739;28;19925;-80
2021/11/23 12:28:40;;;;;;;8.40;5.60;;;7.60;94.20;;;;;;4989398;28;20503;-77
2021/11/23 12:31:11;;;;;;;9.90;6.32;;;7.80;93.90;;;;;;4989986;28;20176;-78
2021/11/23 12:33:47;;;;;;;8.32;5.93;;;8.00;93.60;;;;;;4989270;28;20105;-78
2021/11/23 12:36:19;;;;;;;8.55;5.80;;;8.20;93.30;;;;;;4971285;28;20129;-78
2021/11/23 12:38:50;;;;;;;8.65;6.05;;;8.40;92.70;;;;;;4978737;28;20403;-75
2021/11/23 12:41:19;;;;;;;9.27;6.30;;;8.70;92.40;;;;;;4990016;28;20054;-77
2021/11/23 12:43:48;;;;;;;9.27;6.47;;;8.90;91.70;;;;;;4990314;28;20136;-77
2021/11/23 12:46:20;;;;;;;9.10;6.40;;;9.20;90.60;;;;;;4990229;28;20496;-79
2021/11/23 12:48:51;;;;;;;8.57;5.57;;;9.50;90.20;;;;;;4990019;28;20097;-75
2021/11/23 12:51:30;;;;;;;8.82;5.95;;;9.80;89.00;;;;;;4990416;28;20437;-77
2021/11/23 12:54:03;;;;;;;7.95;5.63;;;10.00;87.60;;;;;;4990147;28;20057;-80
2021/11/23 12:56:47;;;;;;;8.52;5.57;;;10.50;85.70;;;;;;4990207;28;20417;-79
2021/11/23 12:59:46;;;;;;;7.07;5.00;;;11.40;82.30;;;;;;4990605;28;20054;-79
2021/11/23 13:02:34;;;;;;;7.65;5.13;;;12.90;75.10;;;;;;4991106;28;20050;-77
2021/11/23 13:05:05;;;;;;;6.05;4.40;;;15.10;67.60;;;;;;4991482;28;20508;-79
2021/11/23 13:07:39;;;;;;;6.25;4.50;;;17.20;59.60;;;;;;5001555;28;20085;-80
2021/11/23 13:10:13;;;;;;;6.25;4.50;;;18.90;53.10;;;;;;5010232;28;20056;-79
2021/11/23 13:12:44;;;;;;;6.28;4.43;;;20.30;48.40;;;;;;5010343;28;20046;-79